Time;durP1;ratioP1;P1;durP2;ratioP2;P2;SDS_P1;SDS_P2;PMS_P1;PMS_P2;Temp;Humidity;BMP_temperature;BMP_pressure;BME280_temperature;BME280_humidity;BME280_pressure;Samples;Min_cycle;Max_cycle;Signal;HPM_P1;HPM_P2
2024/03/23 00:02:48;;;;;;;8.55;5.00;;;;;;;;;;10323371;28;20026;-60
2024/03/23 00:07:53;;;;;;;10.48;5.40;;;;;;;;;;10322572;28;20066;-60
2024/03/23 00:12:55;;;;;;;10.45;4.93;;;;;;;;;;10325021;28;20026;-61
2024/03/23 00:17:57;;;;;;;6.32;4.82;;;;;;;;;;10323108;28;20407;-60
2024/03/23 00:22:59;;;;;;;6.25;4.28;;;;;;;;;;10317937;28;20115;-61
2024/03/23 00:28:02;;;;;;;6.47;4.72;;;;;;;;;;10317654;28;20026;-60
2024/03/23 00:33:05;;;;;;;7.57;5.40;;;;;;;;;;10318019;28;20470;-60
2024/03/23 00:38:08;;;;;;;7.97;4.30;;;;;;;;;;10321872;28;20425;-62
2024/03/23 00:43:10;;;;;;;13.73;4.55;;;;;;;;;;10322066;28;20061;-61
2024/03/23 00:48:12;;;;;;;6.88;4.20;;;;;;;;;;10326293;28;20025;-61
2024/03/23 00:53:14;;;;;;;6.28;4.07;;;;;;;;;;10335410;28;20108;-61
2024/03/23 00:58:15;;;;;;;7.35;4.40;;;;;;;;;;10333265;28;20478;-60
2024/03/23 01:03:16;;;;;;;8.00;5.15;;;;;;;;;;10336487;28;20038;-62
2024/03/23 01:08:16;;;;;;;9.25;4.10;;;;;;;;;;10321817;28;20118;-61
2024/03/23 01:13:20;;;;;;;11.25;4.10;;;;;;;;;;10322305;28;20022;-62
2024/03/23 01:18:22;;;;;;;5.85;4.18;;;;;;;;;;10333677;28;20026;-63
2024/03/23 01:23:23;;;;;;;9.90;4.80;;;;;;;;;;10336346;28;20474;-61
2024/03/23 01:28:23;;;;;;;9.23;4.53;;;;;;;;;;10334766;28;20042;-61
2024/03/23 01:33:24;;;;;;;8.00;4.45;;;;;;;;;;10335045;28;20457;-64
2024/03/23 01:38:25;;;;;;;8.73;4.22;;;;;;;;;;10330197;28;20054;-61
2024/03/23 01:43:25;;;;;;;14.75;4.47;;;;;;;;;;10324297;28;20377;-60
2024/03/23 01:48:26;;;;;;;8.93;4.28;;;;;;;;;;10333683;28;20398;-63
2024/03/23 01:53:28;;;;;;;7.80;3.80;;;;;;;;;;10334144;28;20490;-61
2024/03/23 01:58:29;;;;;;;5.40;4.25;;;;;;;;;;10333519;28;20085;-61
2024/03/23 02:03:29;;;;;;;4.70;3.75;;;;;;;;;;10315294;28;20088;-60
2024/03/23 02:08:30;;;;;;;4.78;3.72;;;;;;;;;;10314014;28;20603;-61
2024/03/23 02:13:31;;;;;;;8.15;4.38;;;;;;;;;;10314251;28;20050;-60
2024/03/23 02:18:35;;;;;;;4.72;3.47;;;;;;;;;;10327549;28;20053;-59
2024/03/23 02:23:36;;;;;;;5.88;4.00;;;;;;;;;;10314602;28;20073;-60
2024/03/23 02:28:37;;;;;;;4.70;3.60;;;;;;;;;;10325905;28;20465;-60
2024/03/23 02:33:38;;;;;;;10.10;3.92;;;;;;;;;;10313152;28;20109;-60
2024/03/23 02:38:38;;;;;;;4.47;3.60;;;;;;;;;;10331123;28;20030;-64
2024/03/23 02:43:39;;;;;;;9.45;4.50;;;;;;;;;;10319365;28;20069;-63
2024/03/23 02:48:39;;;;;;;6.65;4.05;;;;;;;;;;10325410;28;20034;-63
2024/03/23 02:53:41;;;;;;;7.20;4.20;;;;;;;;;;10326151;28;20281;-61
2024/03/23 02:58:42;;;;;;;6.65;4.28;;;;;;;;;;10325601;28;20037;-62
2024/03/23 03:03:44;;;;;;;5.40;4.18;;;;;;;;;;10323574;28;20065;-61
2024/03/23 03:08:45;;;;;;;5.07;3.90;;;;;;;;;;10326130;28;20042;-60
2024/03/23 03:13:45;;;;;;;4.70;3.78;;;;;;;;;;10325616;28;20061;-61
2024/03/23 03:18:46;;;;;;;5.47;3.65;;;;;;;;;;10324921;28;20108;-61
2024/03/23 03:23:50;;;;;;;6.30;4.00;;;;;;;;;;10325716;28;20030;-63
2024/03/23 03:28:51;;;;;;;4.95;3.83;;;;;;;;;;10316436;28;20097;-60
2024/03/23 03:33:51;;;;;;;5.97;3.45;;;;;;;;;;10323997;28;20550;-60
2024/03/23 03:38:52;;;;;;;8.20;4.15;;;;;;;;;;10324353;28;20018;-61
2024/03/23 03:43:52;;;;;;;8.63;3.95;;;;;;;;;;10324419;28;20093;-60
2024/03/23 03:48:54;;;;;;;5.55;3.67;;;;;;;;;;10324133;28;20379;-61
2024/03/23 03:53:55;;;;;;;11.32;3.85;;;;;;;;;;10323995;28;20034;-60
2024/03/23 03:58:55;;;;;;;5.05;4.10;;;;;;;;;;10323991;28;20030;-63
2024/03/23 04:03:56;;;;;;;5.25;3.90;;;;;;;;;;10323958;28;20038;-59
2024/03/23 04:08:57;;;;;;;5.35;3.70;;;;;;;;;;10324289;28;20034;-61
2024/03/23 04:13:57;;;;;;;5.68;3.97;;;;;;;;;;10322670;28;20038;-61
2024/03/23 04:18:58;;;;;;;4.65;3.53;;;;;;;;;;10323492;28;20041;-60
2024/03/23 04:23:58;;;;;;;5.20;3.53;;;;;;;;;;10319761;28;20027;-60
2024/03/23 04:28:59;;;;;;;8.07;3.88;;;;;;;;;;10314943;28;20038;-60
2024/03/23 04:34:00;;;;;;;5.35;3.80;;;;;;;;;;10322743;28;20073;-61
2024/03/23 04:39:00;;;;;;;5.97;3.58;;;;;;;;;;10320715;28;20052;-60
2024/03/23 04:44:01;;;;;;;4.65;3.63;;;;;;;;;;10323455;28;20088;-60
2024/03/23 04:49:04;;;;;;;4.82;3.58;;;;;;;;;;10318678;28;20486;-60
2024/03/23 04:54:05;;;;;;;6.93;3.70;;;;;;;;;;10319488;28;20031;-60
2024/03/23 04:59:06;;;;;;;6.07;3.67;;;;;;;;;;10315341;28;20058;-59
2024/03/23 05:04:06;;;;;;;4.00;3.45;;;;;;;;;;10321518;28;20113;-60
2024/03/23 05:09:07;;;;;;;4.95;3.75;;;;;;;;;;10321374;28;20042;-60
2024/03/23 05:14:08;;;;;;;3.53;3.00;;;;;;;;;;10322095;28;20161;-60
2024/03/23 05:19:08;;;;;;;13.32;4.18;;;;;;;;;;10321829;28;20479;-62
2024/03/23 05:24:09;;;;;;;7.00;3.58;;;;;;;;;;10322279;28;20540;-60
2024/03/23 05:29:13;;;;;;;5.57;3.30;;;;;;;;;;10321831;28;20445;-60
2024/03/23 05:34:14;;;;;;;4.35;3.15;;;;;;;;;;10322332;28;20101;-60
2024/03/23 05:39:16;;;;;;;11.13;3.28;;;;;;;;;;10329225;28;20517;-60
2024/03/23 05:44:18;;;;;;;5.40;3.53;;;;;;;;;;10328862;28;20049;-61
2024/03/23 05:49:19;;;;;;;4.07;3.15;;;;;;;;;;10322614;28;20027;-60
2024/03/23 05:54:19;;;;;;;10.80;3.03;;;;;;;;;;10319950;28;20042;-60
2024/03/23 05:59:20;;;;;;;5.88;3.65;;;;;;;;;;10328485;28;20022;-61
2024/03/23 06:04:22;;;;;;;4.90;3.47;;;;;;;;;;10315186;28;20030;-60
2024/03/23 06:09:23;;;;;;;6.07;3.25;;;;;;;;;;10321682;28;20483;-66
2024/03/23 06:14:23;;;;;;;4.45;3.33;;;;;;;;;;10327330;28;20050;-64
2024/03/23 06:19:27;;;;;;;4.85;3.38;;;;;;;;;;10327172;28;20440;-63
2024/03/23 06:24:27;;;;;;;3.38;2.75;;;;;;;;;;10321208;28;20070;-61
2024/03/23 06:29:28;;;;;;;4.65;3.58;;;;;;;;;;10321347;28;20035;-61
2024/03/23 06:34:28;;;;;;;3.35;3.05;;;;;;;;;;10325978;28;20026;-63
2024/03/23 06:39:29;;;;;;;4.38;3.55;;;;;;;;;;10328363;28;20038;-65
2024/03/23 06:44:30;;;;;;;3.47;2.70;;;;;;;;;;10319680;28;20034;-65
2024/03/23 06:49:31;;;;;;;4.53;3.38;;;;;;;;;;10320713;28;20031;-65
2024/03/23 06:54:31;;;;;;;3.90;3.03;;;;;;;;;;10323424;28;20034;-61
2024/03/23 06:59:32;;;;;;;7.45;3.40;;;;;;;;;;10325746;28;20031;-60
2024/03/23 07:04:32;;;;;;;4.20;3.05;;;;;;;;;;10324772;28;20458;-60
2024/03/23 07:09:33;;;;;;;3.72;3.00;;;;;;;;;;10326418;28;20031;-60
2024/03/23 07:14:33;;;;;;;4.75;3.15;;;;;;;;;;10323882;28;20042;-60
2024/03/23 07:19:34;;;;;;;6.40;3.03;;;;;;;;;;10325949;28;20096;-60
2024/03/23 07:24:35;;;;;;;3.55;3.08;;;;;;;;;;10326767;28;20038;-63
2024/03/23 07:29:36;;;;;;;6.07;3.17;;;;;;;;;;10324692;28;20069;-63
2024/03/23 07:34:37;;;;;;;5.03;2.63;;;;;;;;;;10324211;28;20109;-61
2024/03/23 07:39:37;;;;;;;4.03;3.33;;;;;;;;;;10324482;28;20033;-60
2024/03/23 07:44:38;;;;;;;3.28;2.97;;;;;;;;;;10317818;28;20027;-59
2024/03/23 07:49:39;;;;;;;4.68;3.55;;;;;;;;;;10321980;28;20041;-60
2024/03/23 07:54:40;;;;;;;3.88;3.25;;;;;;;;;;10324741;28;20053;-60
2024/03/23 07:59:40;;;;;;;5.28;3.38;;;;;;;;;;10322636;28;20045;-59
2024/03/23 08:04:41;;;;;;;4.53;3.20;;;;;;;;;;10324602;28;20034;-64
2024/03/23 08:09:41;;;;;;;3.45;3.15;;;;;;;;;;10323804;28;20391;-60
2024/03/23 08:14:43;;;;;;;4.53;3.15;;;;;;;;;;10323590;28;20522;-62
2024/03/23 08:19:43;;;;;;;4.70;3.17;;;;;;;;;;10324555;28;20266;-60
2024/03/23 08:24:44;;;;;;;4.03;3.05;;;;;;;;;;10323436;28;20566;-60
2024/03/23 08:29:45;;;;;;;5.43;3.35;;;;;;;;;;10323415;28;20355;-60
2024/03/23 08:34:46;;;;;;;8.07;3.70;;;;;;;;;;10321352;28;20536;-61
2024/03/23 08:39:46;;;;;;;3.10;2.80;;;;;;;;;;10319655;28;20076;-61
2024/03/23 08:44:49;;;;;;;4.88;3.20;;;;;;;;;;10322534;28;20032;-60
2024/03/23 08:49:50;;;;;;;4.03;3.08;;;;;;;;;;10322604;28;20046;-61
2024/03/23 08:54:51;;;;;;;4.30;3.42;;;;;;;;;;10330657;28;20026;-59
2024/03/23 08:59:51;;;;;;;4.95;3.47;;;;;;;;;;10331373;28;20464;-60
2024/03/23 09:04:52;;;;;;;4.35;3.47;;;;;;;;;;10332111;28;20410;-60
2024/03/23 09:09:52;;;;;;;5.45;3.80;;;;;;;;;;10323988;28;20042;-59
2024/03/23 09:14:53;;;;;;;4.50;4.03;;;;;;;;;;10329230;28;20042;-60
2024/03/23 09:19:54;;;;;;;5.85;3.70;;;;;;;;;;10327233;28;20065;-59
2024/03/23 09:24:54;;;;;;;5.03;3.53;;;;;;;;;;10328966;28;20035;-60
2024/03/23 09:29:55;;;;;;;5.00;3.78;;;;;;;;;;10328100;28;20056;-62
2024/03/23 09:34:56;;;;;;;4.78;3.67;;;;;;;;;;10328790;28;20037;-61
2024/03/23 09:39:56;;;;;;;4.90;3.78;;;;;;;;;;10330435;28;20033;-61
2024/03/23 09:44:59;;;;;;;4.00;3.60;;;;;;;;;;10329705;28;20038;-63
2024/03/23 09:50:00;;;;;;;9.55;5.47;;;;;;;;;;10327287;28;20030;-60
2024/03/23 09:55:01;;;;;;;25.17;7.78;;;;;;;;;;10326631;28;20799;-59
2024/03/23 10:00:03;;;;;;;16.98;7.57;;;;;;;;;;10327576;28;20041;-61
2024/03/23 10:05:05;;;;;;;16.10;7.65;;;;;;;;;;10324195;28;20183;-60
2024/03/23 10:10:11;;;;;;;23.88;8.77;;;;;;;;;;10322750;28;20042;-62
2024/03/23 10:15:25;;;;;;;27.95;9.82;;;;;;;;;;10323446;28;20038;-60
2024/03/23 10:20:26;;;;;;;25.48;10.43;;;;;;;;;;10322327;28;20173;-62
2024/03/23 10:25:27;;;;;;;22.30;12.13;;;;;;;;;;10320666;28;20035;-60
2024/03/23 10:30:28;;;;;;;34.70;12.80;;;;;;;;;;10327542;28;20089;-59
2024/03/23 10:35:28;;;;;;;27.35;12.05;;;;;;;;;;10330986;28;20485;-59
2024/03/23 10:40:29;;;;;;;21.17;12.73;;;;;;;;;;10327412;28;20026;-60
2024/03/23 10:45:31;;;;;;;21.45;13.35;;;;;;;;;;10325556;28;20050;-60
2024/03/23 10:50:32;;;;;;;24.42;14.90;;;;;;;;;;10325956;28;20070;-62
2024/03/23 10:55:34;;;;;;;19.83;13.98;;;;;;;;;;10324770;28;20429;-63
2024/03/23 11:00:37;;;;;;;28.55;14.63;;;;;;;;;;10316106;28;20431;-61
2024/03/23 11:05:37;;;;;;;23.63;14.85;;;;;;;;;;10314341;28;20521;-59
2024/03/23 11:10:38;;;;;;;19.50;14.05;;;;;;;;;;10324379;28;20034;-59
2024/03/23 11:15:38;;;;;;;24.42;14.18;;;;;;;;;;10324332;28;20426;-59
2024/03/23 11:20:39;;;;;;;23.67;13.85;;;;;;;;;;10319873;28;20038;-59
2024/03/23 11:25:39;;;;;;;25.20;13.38;;;;;;;;;;10324427;28;20037;-59
2024/03/23 11:30:40;;;;;;;23.13;13.13;;;;;;;;;;10325511;28;20041;-59
2024/03/23 11:35:41;;;;;;;25.02;12.95;;;;;;;;;;10322993;28;20077;-58
2024/03/23 11:40:44;;;;;;;24.92;12.85;;;;;;;;;;10319574;28;20034;-60
2024/03/23 11:45:57;;;;;;;26.80;12.35;;;;;;;;;;10323013;28;20034;-60
2024/03/23 11:50:58;;;;;;;22.02;11.85;;;;;;;;;;10323805;28;20037;-60
2024/03/23 11:56:00;;;;;;;38.25;13.40;;;;;;;;;;10320531;28;20572;-65
2024/03/23 12:01:05;;;;;;;21.88;11.65;;;;;;;;;;10320955;28;20394;-65
2024/03/23 12:06:07;;;;;;;19.85;11.63;;;;;;;;;;10323343;28;20127;-63
2024/03/23 12:11:17;;;;;;;30.05;11.15;;;;;;;;;;10322332;28;20034;-60
2024/03/23 12:16:22;;;;;;;16.77;11.05;;;;;;;;;;10312733;28;20054;-60
2024/03/23 12:21:23;;;;;;;18.65;10.27;;;;;;;;;;10321662;28;20073;-62
2024/03/23 12:26:23;;;;;;;16.80;8.68;;;;;;;;;;10317921;28;20027;-62
2024/03/23 12:31:24;;;;;;;19.60;9.30;;;;;;;;;;10321451;28;20092;-63
2024/03/23 12:36:25;;;;;;;13.02;8.57;;;;;;;;;;10321489;28;20038;-61
2024/03/23 12:41:25;;;;;;;14.60;8.95;;;;;;;;;;10321455;28;20398;-62
2024/03/23 12:46:26;;;;;;;18.50;9.13;;;;;;;;;;10322000;28;20352;-64
2024/03/23 12:51:26;;;;;;;12.95;8.00;;;;;;;;;;10322143;28;20096;-63
2024/03/23 12:56:30;;;;;;;15.88;8.25;;;;;;;;;;10319616;28;20034;-61
2024/03/23 13:01:31;;;;;;;17.65;9.38;;;;;;;;;;10320903;28;20030;-64
2024/03/23 13:06:35;;;;;;;14.65;8.85;;;;;;;;;;10320836;28;20030;-62
2024/03/23 13:11:35;;;;;;;20.17;10.75;;;;;;;;;;10321254;28;20117;-62
2024/03/23 13:16:36;;;;;;;24.27;13.05;;;;;;;;;;10320995;28;20557;-62
2024/03/23 13:21:36;;;;;;;21.33;12.75;;;;;;;;;;10323365;28;20364;-62
2024/03/23 13:26:37;;;;;;;18.30;12.95;;;;;;;;;;10320799;28;20030;-62
2024/03/23 13:31:37;;;;;;;21.90;13.55;;;;;;;;;;10320272;28;20143;-61
2024/03/23 13:36:38;;;;;;;18.05;12.95;;;;;;;;;;10321300;28;20034;-60
2024/03/23 13:41:44;;;;;;;22.27;15.40;;;;;;;;;;10290893;28;20057;-60
2024/03/23 13:46:47;;;;;;;21.23;14.93;;;;;;;;;;10323123;28;20064;-61
2024/03/23 13:51:47;;;;;;;23.80;15.93;;;;;;;;;;10357680;28;20088;-59
2024/03/23 13:56:50;;;;;;;21.48;14.93;;;;;;;;;;10361019;28;20401;-61
2024/03/23 14:01:51;;;;;;;23.48;14.82;;;;;;;;;;10364127;28;20057;-63
2024/03/23 14:06:52;;;;;;;21.98;14.77;;;;;;;;;;10361765;28;20033;-61
2024/03/23 14:11:52;;;;;;;21.70;14.57;;;;;;;;;;10366526;28;20041;-62
2024/03/23 14:16:53;;;;;;;26.40;14.80;;;;;;;;;;10365563;28;20038;-61
2024/03/23 14:21:54;;;;;;;21.05;12.93;;;;;;;;;;10360368;28;20033;-61
2024/03/23 14:26:54;;;;;;;20.70;13.27;;;;;;;;;;10369754;28;20033;-59
2024/03/23 14:31:55;;;;;;;27.20;13.57;;;;;;;;;;10369782;28;20034;-60
2024/03/23 14:36:55;;;;;;;25.05;13.30;;;;;;;;;;10356985;28;20055;-62
2024/03/23 14:41:56;;;;;;;22.58;12.57;;;;;;;;;;10366097;28;20038;-58
2024/03/23 14:46:57;;;;;;;16.60;12.30;;;;;;;;;;10356507;28;20062;-60
2024/03/23 14:51:57;;;;;;;17.23;11.93;;;;;;;;;;10345658;28;20026;-62
2024/03/23 14:56:58;;;;;;;17.35;11.40;;;;;;;;;;10364498;28;20025;-59
2024/03/23 15:01:59;;;;;;;16.15;10.82;;;;;;;;;;10366072;28;20030;-58
2024/03/23 15:07:01;;;;;;;18.63;11.77;;;;;;;;;;10361776;28;20030;-60
2024/03/23 15:12:01;;;;;;;19.25;9.90;;;;;;;;;;10364644;28;20087;-62
2024/03/23 15:17:06;;;;;;;17.25;10.63;;;;;;;;;;10367121;28;20445;-60
2024/03/23 15:22:08;;;;;;;15.18;8.90;;;;;;;;;;10365728;28;20116;-60
2024/03/23 15:27:09;;;;;;;15.32;8.68;;;;;;;;;;10367401;28;20377;-60
2024/03/23 15:32:09;;;;;;;15.77;8.52;;;;;;;;;;10363165;28;20026;-59
2024/03/23 15:37:10;;;;;;;13.68;8.88;;;;;;;;;;10366065;28;20041;-62
2024/03/23 15:42:11;;;;;;;13.65;7.80;;;;;;;;;;10368423;28;20052;-64
2024/03/23 15:47:11;;;;;;;10.70;7.57;;;;;;;;;;10376248;28;20038;-63
2024/03/23 15:52:12;;;;;;;9.50;7.05;;;;;;;;;;10350932;28;21709;-63
2024/03/23 15:57:13;;;;;;;16.60;7.90;;;;;;;;;;10364842;28;20037;-63
2024/03/23 16:02:13;;;;;;;11.45;7.10;;;;;;;;;;10368658;28;20620;-62
2024/03/23 16:07:14;;;;;;;10.55;7.47;;;;;;;;;;10366926;28;20034;-62
2024/03/23 16:12:14;;;;;;;9.05;6.75;;;;;;;;;;10371834;28;20026;-63
2024/03/23 16:17:15;;;;;;;9.63;6.68;;;;;;;;;;10365858;28;20107;-63
2024/03/23 16:22:16;;;;;;;9.13;6.15;;;;;;;;;;10363875;28;20030;-60
2024/03/23 16:27:16;;;;;;;9.07;7.10;;;;;;;;;;10364927;28;20648;-61
2024/03/23 16:32:17;;;;;;;10.55;6.72;;;;;;;;;;10363976;28;20030;-60
2024/03/23 16:37:17;;;;;;;8.45;6.40;;;;;;;;;;10360599;28;20044;-63
2024/03/23 16:42:18;;;;;;;8.65;6.40;;;;;;;;;;10364228;28;20033;-63
2024/03/23 16:47:18;;;;;;;9.30;6.50;;;;;;;;;;10361680;28;20045;-58
2024/03/23 16:52:20;;;;;;;8.13;6.10;;;;;;;;;;10356747;28;21035;-61
2024/03/23 16:57:20;;;;;;;6.63;5.00;;;;;;;;;;10357776;28;20042;-60
2024/03/23 17:02:21;;;;;;;7.72;6.47;;;;;;;;;;10337594;28;20022;-62
2024/03/23 17:07:21;;;;;;;15.02;6.68;;;;;;;;;;10356171;28;20084;-62
2024/03/23 17:12:22;;;;;;;12.25;6.40;;;;;;;;;;10349409;28;20073;-62
2024/03/23 17:17:22;;;;;;;8.60;6.38;;;;;;;;;;10360519;28;20054;-61
2024/03/23 17:22:23;;;;;;;9.35;5.65;;;;;;;;;;10348919;28;20030;-59
2024/03/23 17:27:24;;;;;;;8.93;5.63;;;;;;;;;;10351083;28;20037;-61
2024/03/23 17:32:28;;;;;;;9.75;6.05;;;;;;;;;;10347656;28;20061;-59
2024/03/23 17:37:28;;;;;;;8.88;5.57;;;;;;;;;;10362556;28;20037;-61
2024/03/23 17:42:29;;;;;;;10.15;5.72;;;;;;;;;;10361893;28;20393;-62
2024/03/23 17:47:36;;;;;;;6.35;5.40;;;;;;;;;;10363981;28;20070;-62
2024/03/23 17:52:37;;;;;;;6.60;5.57;;;;;;;;;;10364638;28;20037;-61
2024/03/23 17:57:37;;;;;;;9.27;5.80;;;;;;;;;;10363737;28;20041;-61
2024/03/23 18:02:38;;;;;;;6.57;5.60;;;;;;;;;;10374118;28;20029;-61
2024/03/23 18:07:39;;;;;;;7.63;5.93;;;;;;;;;;10382044;28;20042;-61
2024/03/23 18:12:39;;;;;;;8.38;5.30;;;;;;;;;;10368635;28;20466;-62
2024/03/23 18:17:40;;;;;;;6.20;5.13;;;;;;;;;;10362717;28;20536;-59
2024/03/23 18:22:41;;;;;;;9.90;5.60;;;;;;;;;;10368886;28;20178;-61
2024/03/23 18:27:42;;;;;;;9.27;5.78;;;;;;;;;;10362006;28;20030;-60
2024/03/23 18:32:42;;;;;;;10.57;5.20;;;;;;;;;;10367614;28;20026;-59
2024/03/23 18:37:43;;;;;;;8.35;5.40;;;;;;;;;;10379613;28;20030;-59
2024/03/23 18:42:45;;;;;;;8.95;5.13;;;;;;;;;;10367287;28;20083;-63
2024/03/23 18:47:45;;;;;;;6.68;5.30;;;;;;;;;;10383699;28;20129;-60
2024/03/23 18:52:46;;;;;;;7.50;5.53;;;;;;;;;;10379444;28;20084;-61
2024/03/23 18:57:47;;;;;;;7.55;5.13;;;;;;;;;;10372269;28;20029;-59
2024/03/23 19:02:48;;;;;;;8.93;6.00;;;;;;;;;;10366033;28;20463;-60
2024/03/23 19:07:48;;;;;;;9.38;5.35;;;;;;;;;;10352214;28;20026;-58
2024/03/23 19:12:49;;;;;;;8.68;5.13;;;;;;;;;;10355112;28;20034;-59
2024/03/23 19:17:50;;;;;;;9.75;5.22;;;;;;;;;;10359206;28;20065;-59
2024/03/23 19:22:51;;;;;;;11.02;5.50;;;;;;;;;;10362400;28;20026;-60
2024/03/23 19:27:51;;;;;;;6.80;5.35;;;;;;;;;;10365802;28;20049;-60
2024/03/23 19:32:54;;;;;;;9.13;5.55;;;;;;;;;;10363062;28;20030;-60
2024/03/23 19:37:54;;;;;;;11.95;5.70;;;;;;;;;;10359347;28;20084;-59
2024/03/23 19:42:55;;;;;;;12.63;5.55;;;;;;;;;;10362023;28;20306;-63
2024/03/23 19:47:56;;;;;;;9.10;5.85;;;;;;;;;;10358619;28;20041;-63
2024/03/23 19:52:57;;;;;;;6.88;5.32;;;;;;;;;;10360784;28;20594;-63
2024/03/23 19:57:58;;;;;;;9.65;5.45;;;;;;;;;;10360501;28;20214;-64
2024/03/23 20:03:04;;;;;;;7.03;5.30;;;;;;;;;;10355632;28;20698;-59
2024/03/23 20:08:07;;;;;;;11.55;5.57;;;;;;;;;;10352988;28;20104;-60
2024/03/23 20:13:08;;;;;;;9.48;5.85;;;;;;;;;;10362769;28;20065;-61
2024/03/23 20:18:09;;;;;;;5.70;4.82;;;;;;;;;;10361602;28;20046;-63
2024/03/23 20:23:10;;;;;;;9.50;5.68;;;;;;;;;;10358808;28;20018;-63
2024/03/23 20:28:10;;;;;;;6.78;5.28;;;;;;;;;;10357112;28;20045;-59
2024/03/23 20:33:11;;;;;;;9.82;5.60;;;;;;;;;;10359175;28;20022;-60
2024/03/23 20:38:11;;;;;;;9.38;5.38;;;;;;;;;;10357173;28;20030;-61
2024/03/23 20:43:12;;;;;;;20.73;5.68;;;;;;;;;;10367547;28;20029;-60
2024/03/23 20:48:13;;;;;;;7.05;5.15;;;;;;;;;;10365101;28;20115;-59
2024/03/23 20:53:13;;;;;;;10.52;5.38;;;;;;;;;;10369432;28;20030;-60
2024/03/23 20:58:14;;;;;;;7.30;5.53;;;;;;;;;;10354948;28;20088;-60
2024/03/23 21:03:15;;;;;;;7.30;4.97;;;;;;;;;;10360446;28;20502;-59
2024/03/23 21:08:16;;;;;;;6.13;5.05;;;;;;;;;;10357206;28;20029;-59
2024/03/23 21:13:17;;;;;;;7.20;4.05;;;;;;;;;;10362281;28;20041;-59
2024/03/23 21:18:18;;;;;;;10.27;5.22;;;;;;;;;;10367552;28;20417;-59
2024/03/23 21:23:18;;;;;;;9.82;4.80;;;;;;;;;;10369011;28;20053;-59
2024/03/23 21:28:19;;;;;;;10.93;4.35;;;;;;;;;;10367786;28;20029;-58
2024/03/23 21:33:20;;;;;;;13.05;4.97;;;;;;;;;;10362868;28;20040;-61
2024/03/23 21:38:21;;;;;;;21.70;7.20;;;;;;;;;;10367614;28;20029;-62
2024/03/23 21:43:22;;;;;;;19.50;6.32;;;;;;;;;;10368050;28;20212;-60
2024/03/23 21:48:23;;;;;;;13.45;6.15;;;;;;;;;;10347262;28;20068;-60
2024/03/23 21:53:24;;;;;;;14.20;5.90;;;;;;;;;;10357291;28;20045;-60
2024/03/23 21:58:26;;;;;;;24.95;7.20;;;;;;;;;;10361097;28;20409;-62
2024/03/23 22:03:27;;;;;;;17.08;6.22;;;;;;;;;;10366363;28;20038;-61
2024/03/23 22:08:27;;;;;;;16.02;6.93;;;;;;;;;;10363513;28;20040;-62
2024/03/23 22:13:28;;;;;;;10.82;5.80;;;;;;;;;;10366350;28;20100;-62
2024/03/23 22:18:29;;;;;;;17.73;6.22;;;;;;;;;;10367818;28;20038;-60
2024/03/23 22:23:31;;;;;;;19.15;6.10;;;;;;;;;;10369034;28;20034;-62
2024/03/23 22:28:31;;;;;;;8.23;5.35;;;;;;;;;;10366655;28;20080;-60
2024/03/23 22:33:32;;;;;;;12.55;5.63;;;;;;;;;;10367300;28;20026;-59
2024/03/23 22:38:33;;;;;;;14.85;5.97;;;;;;;;;;10367673;28;20425;-60
2024/03/23 22:43:34;;;;;;;18.65;6.28;;;;;;;;;;10367997;28;20038;-61
2024/03/23 22:48:37;;;;;;;14.35;5.53;;;;;;;;;;10367176;28;20588;-62
2024/03/23 22:53:38;;;;;;;12.63;5.55;;;;;;;;;;10357105;28;20055;-62
2024/03/23 22:58:39;;;;;;;12.43;5.80;;;;;;;;;;10361026;28;20038;-62
2024/03/23 23:03:39;;;;;;;11.13;5.38;;;;;;;;;;10354054;28;20061;-62
2024/03/23 23:08:40;;;;;;;7.70;4.47;;;;;;;;;;10365544;28;20037;-60
2024/03/23 23:13:41;;;;;;;10.20;5.10;;;;;;;;;;10366456;28;20061;-61
2024/03/23 23:18:41;;;;;;;8.50;5.13;;;;;;;;;;10363692;28;20066;-60
2024/03/23 23:23:42;;;;;;;10.20;5.45;;;;;;;;;;10357738;28;20041;-60
2024/03/23 23:28:42;;;;;;;10.93;5.60;;;;;;;;;;10365231;28;20089;-59
2024/03/23 23:33:43;;;;;;;8.15;4.93;;;;;;;;;;10364363;28;20030;-59
2024/03/23 23:38:49;;;;;;;17.88;4.82;;;;;;;;;;10364999;28;20030;-59
2024/03/23 23:43:54;;;;;;;11.30;4.88;;;;;;;;;;10365731;28;20125;-59
2024/03/23 23:48:55;;;;;;;11.35;4.97;;;;;;;;;;10355829;28;20096;-59
2024/03/23 23:53:56;;;;;;;10.40;4.72;;;;;;;;;;10360428;28;20117;-59
2024/03/23 23:58:56;;;;;;;6.78;4.53;;;;;;;;;;10374186;28;20037;-59
